createdAt,value
2019-04-16T00:02:19.506Z,30.90
2019-04-16T00:05:27.836Z,30.90
2019-04-16T00:08:34.028Z,30.90
2019-04-16T00:12:02.434Z,30.90
2019-04-16T00:14:56.113Z,30.90
2019-04-16T00:17:50.388Z,30.90
2019-04-16T00:20:54.024Z,30.90
2019-04-16T00:24:21.270Z,30.90
2019-04-16T00:27:18.940Z,30.90
2019-04-16T00:30:12.571Z,30.90
2019-04-16T00:33:04.251Z,30.90
2019-04-16T00:35:56.225Z,30.90
2019-04-16T00:38:53.829Z,30.90
2019-04-16T00:41:45.661Z,30.90
2019-04-16T00:44:49.308Z,30.90
2019-04-16T00:47:41.693Z,30.90
2019-04-16T00:50:35.338Z,30.90
2019-04-16T00:53:26.771Z,30.90
2019-04-16T00:56:31.633Z,30.90
2019-04-16T00:59:29.349Z,30.90
2019-04-16T01:02:20.926Z,30.90
2019-04-16T01:05:12.918Z,30.90
2019-04-16T01:08:04.785Z,30.90
2019-04-16T01:11:14.804Z,30.90
2019-04-16T01:14:07.924Z,30.90
2019-04-16T01:17:03.836Z,30.90
2019-04-16T01:19:55.532Z,30.90
2019-04-16T01:22:47.603Z,30.90
2019-04-16T01:25:39.390Z,30.90
2019-04-16T01:28:34.246Z,30.90
2019-04-16T01:31:52.938Z,30.90
2019-04-16T01:35:01.301Z,30.90
2019-04-16T01:38:06.236Z,30.90
2019-04-16T01:41:21.982Z,30.90
2019-04-16T01:44:12.806Z,30.90
2019-04-16T01:47:05.718Z,30.90
2019-04-16T01:49:59.306Z,30.90
2019-04-16T01:52:58.839Z,30.90
2019-04-16T01:55:56.738Z,30.90
2019-04-16T01:58:56.718Z,30.90
2019-04-16T02:01:51.736Z,30.90
2019-04-16T02:04:48.534Z,30.90
2019-04-16T02:07:45.893Z,30.90
2019-04-16T02:10:39.146Z,30.90
2019-04-16T02:13:32.145Z,30.90
2019-04-16T02:16:43.631Z,30.90
2019-04-16T02:19:42.633Z,30.90
2019-04-16T02:26:25.248Z,30.90
2019-04-16T02:29:21.335Z,30.90
2019-04-16T02:32:18.297Z,30.90
2019-04-16T02:35:11.675Z,30.90
2019-04-16T02:38:12.315Z,30.90
2019-04-16T02:41:02.204Z,30.90
2019-04-16T02:43:55.354Z,30.90
2019-04-16T02:46:49.117Z,30.90
2019-04-16T03:38:09.322Z,30.70
2019-04-16T03:41:03.535Z,30.80
2019-04-16T03:44:22.675Z,30.80
2019-04-16T03:47:15.639Z,30.90
2019-04-16T03:50:31.069Z,30.90
2019-04-16T03:53:38.416Z,31.00
2019-04-16T03:56:42.567Z,31.00
2019-04-16T03:59:41.834Z,31.00
2019-04-16T04:02:34.715Z,31.00
2019-04-16T04:05:35.807Z,31.00
2019-04-16T04:08:33.457Z,31.10
2019-04-16T04:11:28.091Z,31.10
2019-04-16T04:14:26.167Z,31.10
2019-04-16T04:17:18.108Z,31.10
2019-04-16T04:20:09.880Z,31.10
2019-04-16T04:23:01.557Z,31.10
2019-04-16T05:14:20.907Z,30.90
2019-04-16T05:17:15.021Z,30.80
2019-04-16T05:20:07.956Z,30.90
2019-04-16T05:23:05.284Z,30.90
2019-04-16T05:26:04.533Z,31.00
2019-04-16T05:28:57.406Z,31.00
2019-04-16T05:31:51.293Z,31.10
2019-04-16T05:34:47.303Z,31.10
2019-04-16T05:37:41.776Z,31.10
2019-04-16T05:40:35.298Z,31.10
2019-04-16T05:43:30.936Z,31.10
2019-04-16T05:46:23.961Z,31.10
2019-04-16T05:49:18.435Z,31.10
2019-04-16T05:52:12.747Z,31.10
2019-04-16T05:55:19.051Z,31.20
2019-04-16T05:58:11.498Z,31.20
2019-04-16T06:01:27.508Z,31.20
2019-04-16T06:04:19.149Z,31.20
2019-04-16T06:07:12.366Z,31.20
2019-04-16T06:10:06.994Z,31.20
2019-04-16T06:13:12.675Z,31.10
2019-04-16T06:16:35.126Z,31.20
2019-04-16T06:19:46.785Z,31.20
2019-04-16T06:23:00.622Z,31.20
2019-04-16T06:26:04.021Z,31.20
2019-04-16T06:29:27.715Z,31.20
2019-04-16T07:00:35.295Z,30.90
2019-04-16T07:04:00.105Z,30.90
2019-04-16T07:07:10.261Z,30.90
2019-04-16T07:10:07.860Z,31.00
2019-04-16T07:12:59.745Z,31.00
2019-04-16T07:15:53.319Z,31.00
2019-04-16T07:18:45.836Z,31.10
2019-04-16T07:21:37.048Z,31.10
2019-04-16T07:24:30.692Z,31.10
2019-04-16T07:27:22.180Z,31.10
2019-04-16T07:30:23.059Z,31.20
2019-04-16T07:33:24.761Z,31.20
2019-04-16T07:36:44.607Z,31.10
2019-04-16T07:39:50.493Z,31.20
2019-04-16T07:43:03.567Z,31.20
2019-04-16T07:46:01.566Z,31.20
2019-04-16T07:49:11.717Z,31.20
2019-04-16T07:52:33.641Z,31.20
2019-04-16T07:55:57.318Z,31.20
2019-04-16T08:07:21.673Z,31.10
2019-04-16T08:10:16.786Z,31.10
2019-04-16T08:13:20.225Z,31.10
2019-04-16T08:16:15.387Z,31.10
2019-04-16T08:19:36.946Z,31.10
2019-04-16T08:22:28.308Z,31.20
2019-04-16T08:25:33.629Z,31.10
2019-04-16T08:28:23.219Z,31.20
2019-04-16T08:31:20.956Z,31.20
2019-04-16T08:34:26.430Z,31.20
2019-04-16T08:37:18.507Z,31.20
2019-04-16T08:40:23.889Z,31.20
2019-04-16T08:43:29.654Z,31.20
2019-04-16T08:46:42.632Z,31.20
2019-04-16T08:49:54.286Z,31.20
2019-04-16T08:52:46.132Z,31.20
2019-04-16T08:55:38.801Z,31.20
2019-04-16T08:58:38.396Z,31.20
2019-04-16T09:01:33.354Z,31.20
2019-04-16T09:04:26.043Z,31.20
2019-04-16T09:07:35.492Z,31.20
2019-04-16T09:10:30.918Z,31.20
2019-04-16T09:13:23.625Z,31.20
2019-04-16T09:16:28.987Z,31.20
2019-04-16T09:19:23.492Z,31.20
2019-04-16T09:22:16.852Z,31.20
2019-04-16T09:25:38.917Z,31.20
2019-04-16T09:29:09.972Z,31.20
2019-04-16T09:32:21.414Z,31.20
2019-04-16T09:35:44.850Z,31.20
2019-04-16T09:39:06.860Z,31.20
2019-04-16T09:42:01.149Z,31.20
2019-04-16T09:45:01.909Z,31.20
2019-04-16T09:47:57.465Z,31.20
2019-04-16T09:50:50.974Z,31.20
2019-04-16T09:53:44.543Z,31.20
2019-04-16T09:56:49.350Z,31.20
2019-04-16T09:59:50.142Z,31.20
2019-04-16T10:02:48.073Z,31.20
2019-04-16T10:05:53.459Z,31.20
2019-04-16T10:08:56.570Z,31.20
2019-04-16T10:11:50.545Z,31.30
2019-04-16T10:14:44.437Z,31.20
2019-04-16T10:17:40.777Z,31.20
2019-04-16T10:20:34.775Z,31.20
2019-04-16T10:23:35.874Z,31.30
2019-04-16T10:26:30.535Z,31.20
2019-04-16T10:29:22.350Z,31.20
2019-04-16T10:32:18.290Z,31.20
2019-04-16T10:35:12.272Z,31.20
2019-04-16T10:38:15.274Z,31.30
2019-04-16T10:41:45.030Z,31.30
2019-04-16T10:44:49.222Z,31.20
2019-04-16T10:48:13.527Z,31.30
2019-04-16T10:51:41.057Z,31.20
2019-04-16T10:54:44.190Z,31.20
2019-04-16T10:58:13.150Z,31.20
2019-04-16T11:04:43.937Z,31.30
2019-04-16T11:07:36.974Z,31.20
2019-04-16T11:10:30.845Z,31.20
2019-04-16T11:13:59.358Z,31.20
2019-04-16T11:17:04.194Z,31.20
2019-04-16T11:19:59.935Z,31.20
2019-04-16T11:23:01.020Z,31.30
2019-04-16T11:25:53.481Z,31.30
2019-04-16T11:28:46.910Z,31.20
2019-04-16T11:31:38.839Z,31.20
2019-04-16T11:34:31.143Z,31.20
2019-04-16T11:37:22.667Z,31.30
2019-04-16T11:40:15.310Z,31.30
2019-04-16T11:43:06.224Z,31.30
2019-04-16T11:45:57.589Z,31.30
2019-04-16T11:48:50.341Z,31.20
2019-04-16T11:51:41.043Z,31.30
2019-04-16T11:54:32.494Z,31.30
2019-04-16T11:57:39.638Z,31.30
2019-04-16T12:00:50.947Z,31.30
2019-04-16T12:03:58.453Z,31.30
2019-04-16T12:07:35.254Z,31.20
2019-04-16T12:11:01.207Z,31.30
2019-04-16T12:21:17.463Z,31.20
2019-04-16T12:24:26.246Z,31.20
2019-04-16T12:27:53.945Z,31.20
2019-04-16T12:31:08.576Z,31.20
2019-04-16T12:34:16.619Z,31.20
2019-04-16T12:37:51.744Z,31.20
2019-04-16T12:41:10.268Z,31.30
2019-04-16T12:44:28.535Z,31.30
2019-04-16T12:47:40.195Z,31.30
2019-04-16T12:50:58.833Z,31.30
2019-04-16T12:54:15.239Z,31.30
2019-04-16T12:57:47.343Z,31.30
2019-04-16T13:00:50.658Z,31.20
2019-04-16T13:04:19.183Z,31.30
2019-04-16T13:07:22.877Z,31.30
2019-04-16T13:10:57.282Z,31.30
2019-04-16T13:29:46.895Z,31.10
2019-04-16T13:32:58.266Z,31.10
2019-04-16T13:35:56.548Z,31.10
2019-04-16T13:39:07.823Z,31.20
2019-04-16T13:42:06.916Z,31.20
2019-04-16T13:45:39.408Z,31.20
2019-04-16T13:48:45.352Z,31.20
2019-04-16T13:51:38.557Z,31.20
2019-04-16T13:54:52.685Z,31.30
2019-04-16T13:57:46.389Z,31.20
2019-04-16T14:00:46.430Z,31.30
2019-04-16T14:03:40.674Z,31.20
2019-04-16T14:06:51.424Z,31.30
2019-04-16T14:09:52.573Z,31.30
2019-04-16T14:12:50.259Z,31.30
2019-04-16T14:15:52.875Z,31.30
2019-04-16T14:18:45.019Z,31.30
2019-04-16T14:21:36.699Z,31.30
2019-04-16T14:24:35.727Z,31.30
2019-04-16T14:27:27.635Z,31.30
2019-04-16T14:30:22.816Z,31.30
2019-04-16T14:33:18.440Z,31.30
2019-04-16T14:36:26.879Z,31.30
2019-04-16T14:39:29.139Z,31.30
2019-04-16T14:42:22.302Z,31.30
2019-04-16T14:45:53.573Z,31.30
2019-04-16T14:48:45.222Z,31.30
2019-04-16T14:51:34.534Z,31.30
2019-04-16T14:54:57.900Z,31.30
2019-04-16T14:58:10.630Z,31.30
2019-04-16T15:01:23.836Z,31.30
2019-04-16T15:08:15.722Z,31.30
2019-04-16T15:11:47.955Z,31.30
2019-04-16T15:14:48.080Z,31.30
2019-04-16T15:18:08.833Z,31.30
2019-04-16T15:21:23.651Z,31.30
2019-04-16T15:24:26.829Z,31.30
2019-04-16T15:27:36.085Z,31.30
2019-04-16T15:30:52.325Z,31.30
2019-04-16T15:34:11.323Z,31.30
2019-04-16T15:37:18.642Z,31.30
2019-04-16T15:40:16.586Z,31.30
2019-04-16T15:43:23.241Z,31.30
2019-04-16T15:46:48.658Z,31.30
2019-04-16T15:49:57.113Z,31.30
2019-04-16T15:53:19.224Z,31.30
2019-04-16T15:56:32.452Z,31.30
2019-04-16T15:59:34.456Z,31.30
2019-04-16T16:02:38.691Z,31.30
2019-04-16T16:05:38.079Z,31.30
2019-04-16T16:08:36.706Z,31.30
2019-04-16T16:11:34.351Z,31.30
2019-04-16T16:14:33.246Z,31.30
2019-04-16T16:17:22.608Z,31.30
2019-04-16T16:20:17.474Z,31.30
2019-04-16T16:23:14.431Z,31.30
2019-04-16T16:26:05.533Z,31.30
2019-04-16T16:28:57.515Z,31.30
2019-04-16T16:31:50.966Z,31.30
2019-04-16T16:34:43.300Z,31.30
2019-04-16T16:37:36.788Z,31.30
2019-04-16T16:40:30.825Z,31.30
2019-04-16T16:43:24.323Z,31.30
2019-04-16T16:46:55.758Z,31.30
2019-04-16T16:49:35.673Z,31.30
2019-04-16T16:52:45.094Z,31.30
2019-04-16T16:55:42.059Z,31.30
2019-04-16T16:58:42.353Z,31.30
2019-04-16T17:01:59.047Z,31.30
2019-04-16T17:04:54.334Z,31.30
2019-04-16T17:07:45.816Z,31.30
2019-04-16T17:10:42.138Z,31.30
2019-04-16T17:13:32.038Z,31.30
2019-04-16T17:16:24.479Z,31.30
2019-04-16T17:19:17.456Z,31.30
2019-04-16T17:22:09.412Z,31.30
2019-04-16T17:25:01.059Z,31.30
2019-04-16T17:27:53.076Z,31.30
2019-04-16T17:30:44.795Z,31.30
2019-04-16T17:33:38.677Z,31.30
2019-04-16T17:36:52.368Z,31.30
2019-04-16T17:58:54.235Z,31.10
2019-04-16T18:13:17.340Z,31.10
2019-04-16T18:16:26.819Z,31.00
2019-04-16T18:19:38.463Z,31.10
2019-04-16T18:22:48.013Z,31.10
2019-04-16T18:25:58.928Z,31.10
2019-04-16T18:32:49.110Z,31.20
2019-04-16T18:36:02.501Z,31.20
2019-04-16T18:39:19.260Z,31.20
2019-04-16T18:42:57.983Z,31.20
2019-04-16T18:46:30.192Z,31.10
2019-04-16T18:49:24.383Z,31.20
2019-04-16T18:52:17.583Z,31.20
2019-04-16T18:55:10.686Z,31.10
2019-04-16T18:58:03.613Z,31.20
2019-04-16T19:01:06.264Z,31.20
2019-04-16T19:04:03.005Z,31.20
2019-04-16T19:06:58.081Z,31.20
2019-04-16T19:09:51.136Z,31.20
2019-04-16T19:12:59.589Z,31.20
2019-04-16T19:15:52.875Z,31.20
2019-04-16T19:19:05.457Z,31.20
2019-04-16T19:22:05.402Z,31.20
2019-04-16T19:25:10.642Z,31.20
2019-04-16T19:28:09.792Z,31.20
2019-04-16T19:31:01.390Z,31.20
2019-04-16T19:34:00.722Z,31.20
2019-04-16T19:36:55.918Z,31.20
2019-04-16T19:40:28.285Z,31.20
2019-04-16T19:43:28.273Z,31.20
2019-04-16T19:46:20.764Z,31.20
2019-04-16T19:49:24.772Z,31.20
2019-04-16T19:52:23.892Z,31.10
2019-04-16T19:55:27.407Z,31.20
2019-04-16T19:58:19.016Z,31.20
2019-04-16T20:01:12.122Z,31.20
2019-04-16T20:04:13.846Z,31.20
2019-04-16T20:07:10.452Z,31.10
2019-04-16T20:10:15.681Z,31.20
2019-04-16T20:13:37.418Z,31.20
2019-04-16T20:17:11.439Z,31.10
2019-04-16T20:20:04.506Z,31.10
2019-04-16T20:22:57.465Z,31.10
2019-04-16T20:26:06.394Z,31.10
2019-04-16T20:29:40.915Z,31.10
2019-04-16T20:32:42.338Z,31.10
2019-04-16T20:35:34.918Z,31.10
2019-04-16T20:38:58.936Z,31.10
2019-04-16T20:41:53.194Z,31.10
2019-04-16T20:44:58.861Z,31.10
2019-04-16T20:48:04.357Z,31.10
2019-04-16T20:50:59.535Z,31.10
2019-04-16T20:53:51.070Z,31.10
2019-04-16T20:56:52.912Z,31.10
2019-04-16T20:59:44.290Z,31.10
2019-04-16T21:02:37.058Z,31.10
2019-04-16T21:05:28.892Z,31.10
2019-04-16T21:08:57.155Z,31.10
2019-04-16T21:11:47.974Z,31.10
2019-04-16T21:14:54.019Z,31.10
2019-04-16T21:17:53.165Z,31.10
2019-04-16T21:20:58.414Z,31.10
2019-04-16T21:23:57.997Z,31.10
2019-04-16T21:26:51.165Z,31.10
2019-04-16T21:29:59.593Z,31.10
2019-04-16T21:33:01.873Z,31.10
2019-04-16T21:36:04.823Z,31.10
2019-04-16T21:39:11.226Z,31.10
2019-04-16T21:42:11.191Z,31.10
2019-04-16T21:45:51.184Z,31.10
2019-04-16T21:48:42.899Z,31.10
2019-04-16T21:51:34.443Z,31.10
2019-04-16T21:54:30.588Z,31.10
2019-04-16T21:57:24.962Z,31.10
2019-04-16T22:00:45.242Z,31.00
2019-04-16T22:03:42.316Z,31.00
2019-04-16T22:06:37.823Z,31.00
2019-04-16T22:09:52.586Z,31.00
2019-04-16T22:12:47.563Z,31.00
2019-04-16T23:12:28.027Z,30.60
2019-04-16T23:15:18.844Z,30.60
2019-04-16T23:18:23.201Z,30.70
2019-04-16T23:21:15.226Z,30.70
2019-04-16T23:24:08.289Z,30.70
2019-04-16T23:30:35.031Z,30.80
2019-04-16T23:33:34.240Z,30.80
2019-04-16T23:36:26.089Z,30.80
2019-04-16T23:39:28.325Z,30.80
2019-04-16T23:42:36.727Z,30.80
2019-04-16T23:46:14.540Z,30.70
2019-04-16T23:49:39.464Z,30.80
2019-04-16T23:52:40.642Z,30.70
2019-04-16T23:55:51.789Z,30.70
2019-04-16T23:59:09.873Z,30.70
